Time;durP1;ratioP1;P1;durP2;ratioP2;P2;SDS_P1;SDS_P2;PMS_P1;PMS_P2;Temp;Humidity;BMP_temperature;BMP_pressure;BME280_temperature;BME280_humidity;BME280_pressure;Samples;Min_cycle;Max_cycle;Signal;HPM_P1;HPM_P2
2023/08/10 00:01:46;;;;;;;7.87;3.10;;;;;;;;;;5048017;28;20040;-60
2023/08/10 00:04:12;;;;;;;8.73;3.43;;;;;;;;;;5048747;28;20049;-60
2023/08/10 00:06:39;;;;;;;8.87;3.13;;;;;;;;;;5047933;28;20102;-60
2023/08/10 00:09:07;;;;;;;10.47;3.40;;;;;;;;;;5048150;28;20047;-60
2023/08/10 00:11:33;;;;;;;6.93;3.00;;;;;;;;;;5048355;28;20430;-60
2023/08/10 00:13:59;;;;;;;6.57;3.00;;;;;;;;;;5047967;28;20041;-60
2023/08/10 00:16:25;;;;;;;9.73;2.80;;;;;;;;;;5050583;28;20080;-61
2023/08/10 00:18:51;;;;;;;9.47;3.27;;;;;;;;;;5052079;28;20045;-60
2023/08/10 00:21:17;;;;;;;8.90;2.87;;;;;;;;;;5052493;28;20377;-60
2023/08/10 00:23:43;;;;;;;12.57;4.03;;;;;;;;;;5052063;28;20041;-60
2023/08/10 00:26:09;;;;;;;9.30;3.10;;;;;;;;;;5072610;28;20087;-60
2023/08/10 00:28:35;;;;;;;7.03;3.10;;;;;;;;;;5071555;28;20048;-60
2023/08/10 00:31:01;;;;;;;7.83;3.00;;;;;;;;;;5071722;28;20109;-60
2023/08/10 00:33:27;;;;;;;12.00;3.20;;;;;;;;;;5063177;28;20586;-60
2023/08/10 00:35:53;;;;;;;7.53;3.00;;;;;;;;;;5051520;28;20171;-60
2023/08/10 00:38:19;;;;;;;8.73;2.83;;;;;;;;;;5065483;28;20040;-60
2023/08/10 00:40:45;;;;;;;6.80;3.17;;;;;;;;;;5068470;28;20036;-60
2023/08/10 00:43:12;;;;;;;10.27;3.57;;;;;;;;;;5063959;28;20482;-60
2023/08/10 00:45:38;;;;;;;7.80;3.23;;;;;;;;;;5053121;28;20568;-60
2023/08/10 00:48:05;;;;;;;13.30;3.67;;;;;;;;;;5059940;28;20056;-60
2023/08/10 00:50:31;;;;;;;14.03;3.47;;;;;;;;;;5071348;28;20406;-60
2023/08/10 00:52:57;;;;;;;7.13;2.93;;;;;;;;;;5056659;28;20542;-60
2023/08/10 00:55:23;;;;;;;8.93;3.00;;;;;;;;;;5066774;28;20513;-60
2023/08/10 00:57:49;;;;;;;9.27;2.93;;;;;;;;;;5071356;28;20139;-60
2023/08/10 01:00:15;;;;;;;8.23;2.70;;;;;;;;;;5071224;28;20044;-60
2023/08/10 01:02:41;;;;;;;7.17;2.83;;;;;;;;;;5071258;28;20056;-60
2023/08/10 01:05:11;;;;;;;13.70;2.70;;;;;;;;;;5056318;28;20056;-60
2023/08/10 01:07:41;;;;;;;8.77;2.67;;;;;;;;;;5051063;28;20057;-60
2023/08/10 01:10:12;;;;;;;8.60;2.50;;;;;;;;;;5051221;28;20090;-60
2023/08/10 01:12:57;;;;;;;12.67;3.10;;;;;;;;;;5051411;28;20048;-60
2023/08/10 01:15:31;;;;;;;11.37;2.60;;;;;;;;;;5050871;28;20526;-60
2023/08/10 01:17:58;;;;;;;6.43;2.60;;;;;;;;;;5051190;28;20048;-60
2023/08/10 01:20:26;;;;;;;9.23;2.87;;;;;;;;;;5050830;28;20131;-60
2023/08/10 01:23:11;;;;;;;12.57;2.67;;;;;;;;;;5050741;28;20053;-60
2023/08/10 01:25:37;;;;;;;11.57;3.20;;;;;;;;;;5050942;28;20103;-60
2023/08/10 01:28:04;;;;;;;9.10;3.00;;;;;;;;;;5050909;28;20418;-60
2023/08/10 01:30:30;;;;;;;10.67;3.93;;;;;;;;;;5050812;28;20577;-60
2023/08/10 01:32:56;;;;;;;10.80;4.43;;;;;;;;;;5049105;28;20486;-60
2023/08/10 01:35:22;;;;;;;8.43;3.20;;;;;;;;;;5050726;28;20116;-60
2023/08/10 01:37:49;;;;;;;10.33;3.80;;;;;;;;;;5050024;28;20507;-60
2023/08/10 01:40:16;;;;;;;12.03;3.00;;;;;;;;;;5053470;28;20040;-60
2023/08/10 01:42:42;;;;;;;11.00;3.07;;;;;;;;;;5070535;28;20521;-60
2023/08/10 01:45:08;;;;;;;9.00;2.97;;;;;;;;;;5064465;28;20465;-61
2023/08/10 01:47:37;;;;;;;10.40;3.27;;;;;;;;;;5049141;28;20045;-60
2023/08/10 01:50:04;;;;;;;10.63;3.20;;;;;;;;;;5058353;28;20080;-60
2023/08/10 01:52:37;;;;;;;8.27;3.40;;;;;;;;;;5058824;28;20056;-60
2023/08/10 01:55:04;;;;;;;10.63;3.05;;;;;;;;;;5063144;28;20528;-61
2023/08/10 01:57:31;;;;;;;6.37;3.20;;;;;;;;;;5051845;28;20449;-61
2023/08/10 01:59:57;;;;;;;8.67;3.50;;;;;;;;;;5054073;28;20041;-61
2023/08/10 02:02:23;;;;;;;9.47;3.30;;;;;;;;;;5058426;28;20032;-61
2023/08/10 02:04:49;;;;;;;8.37;3.67;;;;;;;;;;5070255;28;20049;-61
2023/08/10 02:07:15;;;;;;;8.77;3.50;;;;;;;;;;5059094;28;20555;-61
2023/08/10 02:09:42;;;;;;;7.87;4.20;;;;;;;;;;5050096;28;20036;-61
2023/08/10 02:12:08;;;;;;;7.30;4.03;;;;;;;;;;5049730;28;20091;-61
2023/08/10 02:14:34;;;;;;;7.50;4.03;;;;;;;;;;5050025;28;20048;-61
2023/08/10 02:17:00;;;;;;;12.37;4.43;;;;;;;;;;5050069;28;20037;-61
2023/08/10 02:19:26;;;;;;;12.10;4.30;;;;;;;;;;5052112;28;20503;-61
2023/08/10 02:21:52;;;;;;;10.80;4.93;;;;;;;;;;5049596;28;20040;-61
2023/08/10 02:24:18;;;;;;;12.73;5.20;;;;;;;;;;5049849;28;20045;-61
2023/08/10 02:26:44;;;;;;;9.57;4.83;;;;;;;;;;5049911;28;20049;-61
2023/08/10 02:29:10;;;;;;;7.80;4.67;;;;;;;;;;5049532;28;20513;-61
2023/08/10 02:31:36;;;;;;;11.27;5.43;;;;;;;;;;5048894;28;20053;-61
2023/08/10 02:34:03;;;;;;;14.07;5.90;;;;;;;;;;5049528;28;20413;-64
2023/08/10 02:36:29;;;;;;;12.90;5.57;;;;;;;;;;5049932;28;20068;-61
2023/08/10 02:38:55;;;;;;;11.03;5.20;;;;;;;;;;5048476;28;20805;-60
2023/08/10 02:41:21;;;;;;;16.97;5.87;;;;;;;;;;5049621;28;20052;-61
2023/08/10 02:43:47;;;;;;;12.63;6.00;;;;;;;;;;5048879;28;20049;-61
2023/08/10 02:46:13;;;;;;;16.47;5.53;;;;;;;;;;5049553;28;20407;-61
2023/08/10 02:48:39;;;;;;;16.00;6.00;;;;;;;;;;5048921;28;20045;-61
2023/08/10 02:51:05;;;;;;;12.27;6.57;;;;;;;;;;5049307;28;20099;-62
2023/08/10 02:53:31;;;;;;;16.60;6.53;;;;;;;;;;5049708;28;20418;-61
2023/08/10 02:55:57;;;;;;;9.73;6.00;;;;;;;;;;5059446;28;20140;-61
2023/08/10 02:58:23;;;;;;;14.70;6.17;;;;;;;;;;5068970;28;20123;-61
2023/08/10 03:00:49;;;;;;;16.40;6.40;;;;;;;;;;5067827;28;20041;-61
2023/08/10 03:03:15;;;;;;;17.07;6.30;;;;;;;;;;5063574;28;20268;-61
2023/08/10 03:05:41;;;;;;;12.37;6.50;;;;;;;;;;5068320;28;20049;-61
2023/08/10 03:08:07;;;;;;;14.23;6.33;;;;;;;;;;5058017;28;20860;-61
2023/08/10 03:10:33;;;;;;;14.03;6.60;;;;;;;;;;5049788;28;20124;-61
2023/08/10 03:12:59;;;;;;;13.50;6.33;;;;;;;;;;5060142;28;20040;-61
2023/08/10 03:15:25;;;;;;;15.50;7.00;;;;;;;;;;5048995;28;20040;-61
2023/08/10 03:17:51;;;;;;;9.67;6.00;;;;;;;;;;5056352;28;20044;-61
2023/08/10 03:20:17;;;;;;;13.77;6.40;;;;;;;;;;5068659;28;20086;-61
2023/08/10 03:22:43;;;;;;;10.70;6.10;;;;;;;;;;5068272;28;20044;-61
2023/08/10 03:25:10;;;;;;;9.70;5.90;;;;;;;;;;5068419;28;20045;-61
2023/08/10 03:27:36;;;;;;;10.10;5.43;;;;;;;;;;5058986;28;20427;-61
2023/08/10 03:30:03;;;;;;;16.30;7.47;;;;;;;;;;5056250;28;20044;-61
2023/08/10 03:32:29;;;;;;;11.73;5.93;;;;;;;;;;5067727;28;20047;-61
2023/08/10 03:34:55;;;;;;;10.87;6.00;;;;;;;;;;5068675;28;20044;-61
2023/08/10 03:37:21;;;;;;;10.30;5.90;;;;;;;;;;5068471;28;20125;-61
2023/08/10 03:39:47;;;;;;;15.97;6.60;;;;;;;;;;5068556;28;20048;-61
2023/08/10 03:42:13;;;;;;;11.17;5.87;;;;;;;;;;5069311;28;20052;-61
2023/08/10 03:44:39;;;;;;;12.93;6.00;;;;;;;;;;5058037;28;20342;-61
2023/08/10 03:47:05;;;;;;;11.10;5.67;;;;;;;;;;5048321;28;20099;-61
2023/08/10 03:49:31;;;;;;;10.07;5.27;;;;;;;;;;5048517;28;20044;-61
2023/08/10 03:51:57;;;;;;;12.60;5.90;;;;;;;;;;5054922;28;21183;-61
2023/08/10 03:54:23;;;;;;;13.90;5.80;;;;;;;;;;5054623;28;20096;-61
2023/08/10 03:56:49;;;;;;;8.73;5.53;;;;;;;;;;5054516;28;20060;-61
2023/08/10 03:59:15;;;;;;;11.90;6.20;;;;;;;;;;5055085;28;20037;-61
2023/08/10 04:01:41;;;;;;;13.33;5.60;;;;;;;;;;5055209;28;20499;-61
2023/08/10 04:04:08;;;;;;;11.97;6.07;;;;;;;;;;5053902;28;20048;-61
2023/08/10 04:06:34;;;;;;;12.23;5.67;;;;;;;;;;5062574;28;20051;-61
2023/08/10 04:09:00;;;;;;;9.47;5.23;;;;;;;;;;5074658;28;20437;-61
2023/08/10 04:11:26;;;;;;;10.87;5.87;;;;;;;;;;5074539;28;20356;-61
2023/08/10 04:13:52;;;;;;;15.10;6.67;;;;;;;;;;5074880;28;20524;-61
2023/08/10 04:16:18;;;;;;;15.60;6.57;;;;;;;;;;5056924;28;20045;-61
2023/08/10 04:18:44;;;;;;;12.33;5.20;;;;;;;;;;5069260;28;20074;-61
2023/08/10 04:21:10;;;;;;;10.37;5.60;;;;;;;;;;5063459;28;20173;-61
2023/08/10 04:23:36;;;;;;;11.57;5.67;;;;;;;;;;5054586;28;20303;-61
2023/08/10 04:26:02;;;;;;;11.07;5.37;;;;;;;;;;5072096;28;20041;-61
2023/08/10 04:28:30;;;;;;;15.70;5.77;;;;;;;;;;5074494;28;20067;-61
2023/08/10 04:30:56;;;;;;;12.13;5.40;;;;;;;;;;5074412;28;20052;-61
2023/08/10 04:33:22;;;;;;;10.07;5.10;;;;;;;;;;5074436;28;20517;-61
2023/08/10 04:35:48;;;;;;;12.93;6.60;;;;;;;;;;5062623;28;20049;-61
2023/08/10 04:38:14;;;;;;;10.13;6.20;;;;;;;;;;5072412;28;20585;-61
2023/08/10 04:40:41;;;;;;;14.37;5.77;;;;;;;;;;5074556;28;20158;-61
2023/08/10 04:43:08;;;;;;;12.83;5.40;;;;;;;;;;5074421;28;20132;-61
2023/08/10 04:45:34;;;;;;;10.40;6.30;;;;;;;;;;5074297;28;20057;-61
2023/08/10 04:48:00;;;;;;;13.43;5.60;;;;;;;;;;5074658;28;20109;-61
2023/08/10 04:50:26;;;;;;;14.20;6.13;;;;;;;;;;5073870;28;20040;-61
2023/08/10 04:52:51;;;;;;;11.10;5.43;;;;;;;;;;5062341;28;20049;-61
2023/08/10 04:55:18;;;;;;;9.93;5.30;;;;;;;;;;5054522;28;20092;-61
2023/08/10 04:57:44;;;;;;;9.63;5.70;;;;;;;;;;5054423;28;20041;-61
2023/08/10 05:00:13;;;;;;;11.93;6.00;;;;;;;;;;5054410;28;20525;-61
2023/08/10 05:02:39;;;;;;;17.33;5.47;;;;;;;;;;5050276;28;20048;-61
2023/08/10 05:05:06;;;;;;;10.57;5.80;;;;;;;;;;5051206;28;20041;-61
2023/08/10 05:07:33;;;;;;;16.03;6.20;;;;;;;;;;5050838;28;20462;-61
2023/08/10 05:09:59;;;;;;;12.23;6.57;;;;;;;;;;5051388;28;20051;-61
2023/08/10 05:12:25;;;;;;;12.57;5.73;;;;;;;;;;5050497;28;20134;-61
2023/08/10 05:14:51;;;;;;;17.93;6.23;;;;;;;;;;5069735;28;20494;-61
2023/08/10 05:17:17;;;;;;;11.17;5.47;;;;;;;;;;5070902;28;20045;-61
2023/08/10 05:19:43;;;;;;;15.17;6.67;;;;;;;;;;5070869;28;20045;-61
2023/08/10 05:22:09;;;;;;;15.63;6.63;;;;;;;;;;5070324;28;20223;-61
2023/08/10 05:24:35;;;;;;;16.30;6.30;;;;;;;;;;5070707;28;20537;-61
2023/08/10 05:27:02;;;;;;;14.73;6.47;;;;;;;;;;5057607;28;20059;-62
2023/08/10 05:29:28;;;;;;;15.13;6.63;;;;;;;;;;5050769;28;20521;-61
2023/08/10 05:31:54;;;;;;;12.17;5.33;;;;;;;;;;5050189;28;20139;-61
2023/08/10 05:34:20;;;;;;;12.73;5.87;;;;;;;;;;5050555;28;20045;-61
2023/08/10 05:36:46;;;;;;;12.97;5.27;;;;;;;;;;5050586;28;20410;-61
2023/08/10 05:39:12;;;;;;;11.20;5.40;;;;;;;;;;5050461;28;20363;-61
2023/08/10 05:41:38;;;;;;;11.90;5.37;;;;;;;;;;5050392;28;20037;-61
2023/08/10 05:44:05;;;;;;;12.17;5.30;;;;;;;;;;5050917;28;20041;-61
2023/08/10 05:46:31;;;;;;;10.30;5.50;;;;;;;;;;5049740;28;20114;-62
2023/08/10 05:48:57;;;;;;;11.40;5.10;;;;;;;;;;5050265;28;20098;-61
2023/08/10 05:51:23;;;;;;;7.43;4.60;;;;;;;;;;5050264;28;20119;-61
2023/08/10 05:53:49;;;;;;;11.70;4.73;;;;;;;;;;5066760;28;20053;-61
2023/08/10 05:56:15;;;;;;;13.37;4.20;;;;;;;;;;5059864;28;20053;-61
2023/08/10 05:58:41;;;;;;;7.03;4.47;;;;;;;;;;5050142;28;20048;-61
2023/08/10 06:01:07;;;;;;;15.40;4.47;;;;;;;;;;5050961;28;20362;-61
2023/08/10 06:03:33;;;;;;;11.53;4.10;;;;;;;;;;5069951;28;20051;-61
2023/08/10 06:06:00;;;;;;;11.13;3.57;;;;;;;;;;5069830;28;20429;-61
2023/08/10 06:08:26;;;;;;;12.20;4.17;;;;;;;;;;5069088;28;20418;-62
2023/08/10 06:10:52;;;;;;;7.90;3.83;;;;;;;;;;5070003;28;20072;-61
2023/08/10 06:13:18;;;;;;;11.30;4.37;;;;;;;;;;5068803;28;20040;-61
2023/08/10 06:15:46;;;;;;;16.97;4.07;;;;;;;;;;5049536;28;20517;-61
2023/08/10 06:18:13;;;;;;;12.07;3.70;;;;;;;;;;5063775;28;20440;-61
2023/08/10 06:20:39;;;;;;;13.53;4.23;;;;;;;;;;5069533;28;20044;-61
2023/08/10 06:23:05;;;;;;;16.47;3.90;;;;;;;;;;5069510;28;20127;-61
2023/08/10 06:25:31;;;;;;;12.57;3.77;;;;;;;;;;5069385;28;20131;-62
2023/08/10 06:27:58;;;;;;;11.10;3.73;;;;;;;;;;5069437;28;20118;-62
2023/08/10 06:30:25;;;;;;;8.10;3.33;;;;;;;;;;5069413;28;20041;-62
2023/08/10 06:32:51;;;;;;;9.77;3.73;;;;;;;;;;5068715;28;20055;-62
2023/08/10 06:35:19;;;;;;;5.87;3.03;;;;;;;;;;5061039;28;20175;-62
2023/08/10 06:37:45;;;;;;;8.03;3.10;;;;;;;;;;5052862;28;20045;-61
2023/08/10 06:40:11;;;;;;;8.57;2.97;;;;;;;;;;5048759;28;20510;-61
2023/08/10 06:42:38;;;;;;;12.43;4.10;;;;;;;;;;5048505;28;20112;-62
2023/08/10 06:45:04;;;;;;;15.00;4.10;;;;;;;;;;5048289;28;20048;-61
2023/08/10 06:47:31;;;;;;;4.70;2.40;;;;;;;;;;5048405;28;20041;-62
2023/08/10 06:49:57;;;;;;;8.03;2.50;;;;;;;;;;5057637;28;20044;-63
2023/08/10 06:52:24;;;;;;;7.10;2.97;;;;;;;;;;5068451;28;20044;-62
2023/08/10 06:54:52;;;;;;;5.73;2.50;;;;;;;;;;5068156;28;20064;-62
2023/08/10 06:57:19;;;;;;;5.83;2.00;;;;;;;;;;5067978;28;20524;-62
2023/08/10 06:59:44;;;;;;;12.53;3.00;;;;;;;;;;5064920;28;20533;-62
2023/08/10 07:02:10;;;;;;;5.63;2.03;;;;;;;;;;5048497;28;20041;-62
2023/08/10 07:04:36;;;;;;;5.17;2.20;;;;;;;;;;5048558;28;20080;-62
2023/08/10 07:07:03;;;;;;;8.97;2.90;;;;;;;;;;5048481;28;20041;-62
2023/08/10 07:09:29;;;;;;;6.40;2.40;;;;;;;;;;5047621;28;20049;-62
2023/08/10 07:11:55;;;;;;;5.37;2.37;;;;;;;;;;5048426;28;20041;-62
2023/08/10 07:14:21;;;;;;;8.97;1.90;;;;;;;;;;5047567;28;20051;-62
2023/08/10 07:16:47;;;;;;;8.70;2.40;;;;;;;;;;5057088;28;20044;-62
2023/08/10 07:19:13;;;;;;;9.47;1.60;;;;;;;;;;5067616;28;20048;-61
2023/08/10 07:21:39;;;;;;;8.13;2.13;;;;;;;;;;5048034;28;20503;-61
2023/08/10 07:24:08;;;;;;;4.77;1.77;;;;;;;;;;5048144;28;20051;-62
2023/08/10 07:26:34;;;;;;;9.70;2.00;;;;;;;;;;5046805;28;20044;-62
2023/08/10 07:29:00;;;;;;;7.23;2.47;;;;;;;;;;5059605;28;20114;-61
2023/08/10 07:31:29;;;;;;;5.77;1.40;;;;;;;;;;5062449;28;20045;-61
2023/08/10 07:33:55;;;;;;;10.87;1.93;;;;;;;;;;5047950;28;20056;-61
2023/08/10 07:36:21;;;;;;;12.50;2.60;;;;;;;;;;5048336;28;20049;-62
2023/08/10 07:38:47;;;;;;;6.30;2.60;;;;;;;;;;5047964;28;20037;-63
2023/08/10 07:41:14;;;;;;;9.17;2.53;;;;;;;;;;5047330;28;20237;-63
2023/08/10 07:43:40;;;;;;;7.07;2.07;;;;;;;;;;5047762;28;20151;-61
2023/08/10 07:46:06;;;;;;;7.47;1.80;;;;;;;;;;5047705;28;20515;-61
2023/08/10 07:48:32;;;;;;;9.07;1.90;;;;;;;;;;5047484;28;20056;-61
2023/08/10 07:50:58;;;;;;;6.83;1.90;;;;;;;;;;5047923;28;20045;-62
2023/08/10 07:53:28;;;;;;;4.60;1.93;;;;;;;;;;5049546;28;20067;-62
2023/08/10 07:55:54;;;;;;;4.93;1.97;;;;;;;;;;5066424;28;20075;-61
2023/08/10 07:58:20;;;;;;;9.43;2.07;;;;;;;;;;5067093;28;20616;-61
2023/08/10 08:00:46;;;;;;;11.63;2.50;;;;;;;;;;5066503;28;20043;-61
2023/08/10 08:03:12;;;;;;;4.77;1.73;;;;;;;;;;5067330;28;20049;-62
2023/08/10 08:05:40;;;;;;;8.10;1.87;;;;;;;;;;5051655;28;20084;-62
2023/08/10 08:08:06;;;;;;;7.30;1.60;;;;;;;;;;5047420;28;20207;-61
2023/08/10 08:10:33;;;;;;;5.73;1.70;;;;;;;;;;5049076;28;20423;-62
2023/08/10 08:12:59;;;;;;;7.90;1.50;;;;;;;;;;5068397;28;20067;-61
2023/08/10 08:15:25;;;;;;;8.87;1.90;;;;;;;;;;5064816;28;20631;-61
2023/08/10 08:18:10;;;;;;;6.27;1.60;;;;;;;;;;5048139;28;20088;-62
2023/08/10 08:20:36;;;;;;;4.67;1.27;;;;;;;;;;5047639;28;20594;-61
2023/08/10 08:23:02;;;;;;;3.53;1.30;;;;;;;;;;5047965;28;20349;-62
2023/08/10 08:25:28;;;;;;;7.90;2.10;;;;;;;;;;5051689;28;20127;-62
2023/08/10 08:27:54;;;;;;;4.73;1.50;;;;;;;;;;5054752;28;20049;-62
2023/08/10 08:30:20;;;;;;;6.13;1.77;;;;;;;;;;5058527;28;20506;-62
2023/08/10 08:32:46;;;;;;;6.00;1.87;;;;;;;;;;5066168;28;20116;-61
2023/08/10 08:35:12;;;;;;;6.80;1.90;;;;;;;;;;5065876;28;20045;-62
2023/08/10 08:37:38;;;;;;;7.63;2.03;;;;;;;;;;5067060;28;20052;-62
2023/08/10 08:40:04;;;;;;;7.37;1.50;;;;;;;;;;5066260;28;20048;-62
2023/08/10 08:42:30;;;;;;;6.93;1.77;;;;;;;;;;5069622;28;20452;-62
2023/08/10 08:44:56;;;;;;;11.67;2.50;;;;;;;;;;5060885;28;20033;-62
2023/08/10 08:47:23;;;;;;;7.43;1.30;;;;;;;;;;5058254;28;20044;-62
2023/08/10 08:49:49;;;;;;;3.63;1.17;;;;;;;;;;5061459;28;20048;-62
2023/08/10 08:52:15;;;;;;;5.57;1.63;;;;;;;;;;5069995;28;20130;-62
2023/08/10 08:54:41;;;;;;;5.87;1.53;;;;;;;;;;5069629;28;20167;-62
2023/08/10 08:57:07;;;;;;;5.43;1.20;;;;;;;;;;5066751;28;20048;-62
2023/08/10 08:59:33;;;;;;;10.13;1.70;;;;;;;;;;5065310;28;20045;-61
2023/08/10 09:01:59;;;;;;;7.17;1.60;;;;;;;;;;5058231;28;20039;-62
2023/08/10 09:04:25;;;;;;;5.07;1.20;;;;;;;;;;5064448;28;20049;-62
2023/08/10 09:06:51;;;;;;;4.87;2.00;;;;;;;;;;5067028;28;20067;-62
2023/08/10 09:09:17;;;;;;;7.93;1.67;;;;;;;;;;5070082;28;20045;-61
2023/08/10 09:11:43;;;;;;;8.53;1.63;;;;;;;;;;5070221;28;20044;-62
2023/08/10 09:14:10;;;;;;;6.43;1.23;;;;;;;;;;5070711;28;20044;-62
2023/08/10 09:16:39;;;;;;;8.47;1.50;;;;;;;;;;5069774;28;20522;-62
2023/08/10 09:19:10;;;;;;;6.03;1.63;;;;;;;;;;5070420;28;20047;-63
2023/08/10 09:21:36;;;;;;;6.03;1.33;;;;;;;;;;5070319;28;20059;-63
2023/08/10 09:24:03;;;;;;;4.93;1.40;;;;;;;;;;5070334;28;20059;-63
2023/08/10 09:26:29;;;;;;;5.17;2.27;;;;;;;;;;5070252;28;20089;-63
2023/08/10 09:28:55;;;;;;;4.83;1.20;;;;;;;;;;5069657;28;20049;-63
2023/08/10 09:31:26;;;;;;;5.90;1.30;;;;;;;;;;5070019;28;20097;-60
2023/08/10 09:33:59;;;;;;;2.97;1.40;;;;;;;;;;5070108;28;20059;-60
2023/08/10 09:36:26;;;;;;;4.60;1.50;;;;;;;;;;5069765;28;20051;-60
2023/08/10 09:38:53;;;;;;;4.73;1.40;;;;;;;;;;5070547;28;20105;-60
2023/08/10 09:41:22;;;;;;;5.37;1.70;;;;;;;;;;5069892;28;20570;-61
2023/08/10 09:43:49;;;;;;;4.17;1.37;;;;;;;;;;5069530;28;20363;-60
2023/08/10 09:46:15;;;;;;;5.60;1.23;;;;;;;;;;5069684;28;20052;-60
2023/08/10 09:48:44;;;;;;;6.10;1.47;;;;;;;;;;5069543;28;20147;-61
2023/08/10 09:51:11;;;;;;;7.20;1.80;;;;;;;;;;5069911;28;20051;-60
2023/08/10 09:53:37;;;;;;;6.47;1.40;;;;;;;;;;5069632;28;20103;-61
2023/08/10 09:56:08;;;;;;;5.17;1.50;;;;;;;;;;5069092;28;20052;-60
2023/08/10 09:58:37;;;;;;;4.37;1.87;;;;;;;;;;5069662;28;20135;-61
2023/08/10 10:01:04;;;;;;;5.60;1.60;;;;;;;;;;5069724;28;20059;-62
2023/08/10 10:03:31;;;;;;;7.17;1.57;;;;;;;;;;5069231;28;20490;-63
2023/08/10 10:05:57;;;;;;;5.60;1.60;;;;;;;;;;5068926;28;20485;-62
2023/08/10 10:08:25;;;;;;;5.30;1.23;;;;;;;;;;5069599;28;20036;-63
2023/08/10 10:10:50;;;;;;;7.27;1.30;;;;;;;;;;5069258;28;20048;-63
2023/08/10 10:13:16;;;;;;;4.88;1.23;;;;;;;;;;5069614;28;20542;-63
2023/08/10 10:15:43;;;;;;;8.40;1.65;;;;;;;;;;5069157;28;20131;-60
2023/08/10 10:18:10;;;;;;;6.28;1.60;;;;;;;;;;5069088;28;20052;-60
2023/08/10 10:20:38;;;;;;;7.78;1.40;;;;;;;;;;5069507;28;20044;-61
2023/08/10 10:23:04;;;;;;;4.32;1.13;;;;;;;;;;5069201;28;20225;-60
2023/08/10 10:25:30;;;;;;;4.28;2.03;;;;;;;;;;5068682;28;20523;-61
2023/08/10 10:27:56;;;;;;;5.15;1.75;;;;;;;;;;5068807;28;20068;-60
2023/08/10 10:30:24;;;;;;;5.90;1.70;;;;;;;;;;5068987;28;20115;-61
2023/08/10 10:32:51;;;;;;;5.20;1.55;;;;;;;;;;5069140;28;20410;-63
2023/08/10 10:35:43;;;;;;;4.45;2.15;;;;;;;;;;5068756;28;20462;-63
2023/08/10 10:38:09;;;;;;;4.28;1.85;;;;;;;;;;5067712;28;20486;-63
2023/08/10 10:40:35;;;;;;;6.22;1.52;;;;;;;;;;5068420;28;20055;-63
2023/08/10 10:43:01;;;;;;;8.20;1.80;;;;;;;;;;5068614;28;20041;-63
2023/08/10 10:45:27;;;;;;;6.22;1.63;;;;;;;;;;5068664;28;20391;-64
2023/08/10 10:47:55;;;;;;;5.60;1.75;;;;;;;;;;5068207;28;20047;-63
2023/08/10 10:50:23;;;;;;;7.22;2.42;;;;;;;;;;5068662;28;20048;-63
2023/08/10 10:52:59;;;;;;;7.05;1.73;;;;;;;;;;5068573;28;20059;-63
2023/08/10 10:55:25;;;;;;;6.07;2.00;;;;;;;;;;5068337;28;20485;-63
2023/08/10 10:57:51;;;;;;;7.65;1.60;;;;;;;;;;5067989;28;20044;-63
2023/08/10 11:00:19;;;;;;;5.85;1.50;;;;;;;;;;5067235;28;20103;-63
2023/08/10 11:02:46;;;;;;;9.52;1.85;;;;;;;;;;5068759;28;20054;-63
2023/08/10 11:05:16;;;;;;;3.38;1.38;;;;;;;;;;5068317;28;20040;-64
2023/08/10 11:07:47;;;;;;;4.10;2.05;;;;;;;;;;5067508;28;20510;-63
2023/08/10 11:10:13;;;;;;;4.93;1.80;;;;;;;;;;5068200;28;20041;-63
2023/08/10 11:12:41;;;;;;;4.97;1.85;;;;;;;;;;5067975;28;20448;-63
2023/08/10 11:15:08;;;;;;;6.50;2.13;;;;;;;;;;5067930;28;20098;-63
2023/08/10 11:17:34;;;;;;;9.15;1.90;;;;;;;;;;5068047;28;20491;-63
2023/08/10 11:20:00;;;;;;;7.25;2.05;;;;;;;;;;5067884;28;20053;-60
2023/08/10 11:22:27;;;;;;;5.05;1.80;;;;;;;;;;5066598;28;20048;-60
2023/08/10 11:24:53;;;;;;;7.20;2.08;;;;;;;;;;5067559;28;20045;-60
2023/08/10 11:27:19;;;;;;;5.78;2.20;;;;;;;;;;5067940;28;20095;-61
2023/08/10 11:29:45;;;;;;;5.60;1.77;;;;;;;;;;5067973;28;20094;-61
2023/08/10 11:32:11;;;;;;;6.97;1.95;;;;;;;;;;5067685;28;20044;-61
2023/08/10 11:34:38;;;;;;;4.50;1.70;;;;;;;;;;5068087;28;20044;-63
2023/08/10 11:37:04;;;;;;;4.72;2.10;;;;;;;;;;5067964;28;20127;-63
2023/08/10 11:39:30;;;;;;;4.53;2.05;;;;;;;;;;5067242;28;20084;-63
2023/08/10 11:41:56;;;;;;;4.55;1.90;;;;;;;;;;5067889;28;20043;-63
2023/08/10 11:44:23;;;;;;;6.40;1.70;;;;;;;;;;5067935;28;20379;-61
2023/08/10 11:46:49;;;;;;;6.07;2.00;;;;;;;;;;5067702;28;20110;-63
2023/08/10 11:49:15;;;;;;;6.40;2.10;;;;;;;;;;5067038;28;20514;-63
2023/08/10 11:51:44;;;;;;;3.75;2.10;;;;;;;;;;5067853;28;20040;-61
2023/08/10 11:54:10;;;;;;;5.47;1.80;;;;;;;;;;5067737;28;20053;-61
2023/08/10 11:56:45;;;;;;;4.40;1.30;;;;;;;;;;5067689;28;20563;-61
2023/08/10 11:59:14;;;;;;;3.83;1.90;;;;;;;;;;5067801;28;20049;-61
2023/08/10 12:01:47;;;;;;;4.90;2.17;;;;;;;;;;5067512;28;20080;-61
2023/08/10 12:04:14;;;;;;;4.57;1.80;;;;;;;;;;5067022;28;20128;-61
2023/08/10 12:06:43;;;;;;;4.85;2.20;;;;;;;;;;5067550;28;20052;-61
2023/08/10 12:09:12;;;;;;;7.53;2.13;;;;;;;;;;5067579;28;20106;-60
2023/08/10 12:11:47;;;;;;;5.75;2.70;;;;;;;;;;5069095;28;20507;-60
2023/08/10 12:14:13;;;;;;;4.78;2.50;;;;;;;;;;5071208;28;20055;-61
2023/08/10 12:16:39;;;;;;;5.95;2.38;;;;;;;;;;5071551;28;20044;-60
2023/08/10 12:19:05;;;;;;;6.75;2.28;;;;;;;;;;5071207;28;20071;-60
2023/08/10 12:21:32;;;;;;;4.60;1.83;;;;;;;;;;5071621;28;20048;-61
2023/08/10 12:23:58;;;;;;;4.65;2.45;;;;;;;;;;5071652;28;20071;-62
2023/08/10 12:26:24;;;;;;;5.82;3.05;;;;;;;;;;5070699;28;20044;-62
2023/08/10 12:28:51;;;;;;;4.28;2.47;;;;;;;;;;5070925;28;20084;-63
2023/08/10 12:31:17;;;;;;;8.48;2.53;;;;;;;;;;5071034;28;20059;-63
2023/08/10 12:33:44;;;;;;;6.55;3.00;;;;;;;;;;5071221;28;20097;-63
2023/08/10 12:36:10;;;;;;;6.82;2.65;;;;;;;;;;5071079;28;20040;-63
2023/08/10 12:38:37;;;;;;;3.15;2.15;;;;;;;;;;5070888;28;20052;-63
2023/08/10 12:41:03;;;;;;;4.55;2.58;;;;;;;;;;5071177;28;20490;-63
2023/08/10 12:43:29;;;;;;;6.72;2.80;;;;;;;;;;5070910;28;20513;-62
2023/08/10 12:45:55;;;;;;;4.60;2.40;;;;;;;;;;5070865;28;20059;-62
2023/08/10 12:48:21;;;;;;;6.22;2.70;;;;;;;;;;5070945;28;20137;-62
2023/08/10 12:50:47;;;;;;;4.55;2.20;;;;;;;;;;5070534;28;20044;-62
2023/08/10 12:53:13;;;;;;;5.18;2.75;;;;;;;;;;5071058;28;20040;-62
2023/08/10 12:55:39;;;;;;;6.10;2.50;;;;;;;;;;5070718;28;20044;-63
2023/08/10 12:58:05;;;;;;;6.35;3.00;;;;;;;;;;5070962;28;20048;-63
2023/08/10 13:00:31;;;;;;;5.90;3.00;;;;;;;;;;5070412;28;20088;-63
2023/08/10 13:02:57;;;;;;;7.20;2.67;;;;;;;;;;5070718;28;20052;-63
2023/08/10 13:05:23;;;;;;;6.03;3.22;;;;;;;;;;5070889;28;20393;-62
2023/08/10 13:07:49;;;;;;;7.20;3.78;;;;;;;;;;5070846;28;20390;-62
2023/08/10 13:10:15;;;;;;;9.00;4.90;;;;;;;;;;5070564;28;20040;-62
2023/08/10 13:12:43;;;;;;;10.90;7.45;;;;;;;;;;5070576;28;20509;-62
2023/08/10 13:15:09;;;;;;;10.18;6.18;;;;;;;;;;5070049;28;20578;-62
2023/08/10 13:17:35;;;;;;;7.85;4.68;;;;;;;;;;5070420;28;20573;-62
2023/08/10 13:20:03;;;;;;;6.63;4.47;;;;;;;;;;5070733;28;20079;-62
2023/08/10 13:22:33;;;;;;;6.00;4.10;;;;;;;;;;5069664;28;20052;-62
2023/08/10 13:24:59;;;;;;;7.10;3.45;;;;;;;;;;5070236;28;20203;-62
2023/08/10 13:27:25;;;;;;;8.45;4.40;;;;;;;;;;5069600;28;20426;-62
2023/08/10 13:29:51;;;;;;;8.63;4.50;;;;;;;;;;5058572;28;20473;-62
2023/08/10 13:32:18;;;;;;;11.48;7.07;;;;;;;;;;5069350;28;20044;-62
2023/08/10 13:34:44;;;;;;;11.95;7.35;;;;;;;;;;5065489;28;20048;-62
2023/08/10 13:37:10;;;;;;;8.65;5.32;;;;;;;;;;5069365;28;20037;-62
2023/08/10 13:39:36;;;;;;;8.82;4.30;;;;;;;;;;5065707;28;20044;-62
2023/08/10 13:42:04;;;;;;;6.70;3.88;;;;;;;;;;5068808;28;20127;-62
2023/08/10 13:44:30;;;;;;;11.32;5.95;;;;;;;;;;5051398;28;20087;-62
2023/08/10 13:46:56;;;;;;;7.70;3.92;;;;;;;;;;5051323;28;20438;-62
2023/08/10 13:49:24;;;;;;;5.88;3.42;;;;;;;;;;5068476;28;20149;-62
2023/08/10 13:51:50;;;;;;;6.07;3.50;;;;;;;;;;5070861;28;20051;-61
2023/08/10 13:54:16;;;;;;;6.30;2.90;;;;;;;;;;5070528;28;20056;-62
2023/08/10 13:57:01;;;;;;;6.22;2.80;;;;;;;;;;5070103;28;20125;-62
2023/08/10 13:59:28;;;;;;;8.25;3.17;;;;;;;;;;5069650;28;20135;-61
2023/08/10 14:01:54;;;;;;;5.10;3.20;;;;;;;;;;5058640;28;20040;-62
2023/08/10 14:04:21;;;;;;;6.72;3.40;;;;;;;;;;5068496;28;20040;-62
2023/08/10 14:06:47;;;;;;;5.13;3.20;;;;;;;;;;5063108;28;20033;-62
2023/08/10 14:09:13;;;;;;;6.65;3.72;;;;;;;;;;5052253;28;20059;-62
2023/08/10 14:11:39;;;;;;;7.35;4.30;;;;;;;;;;5049451;28;20045;-62
2023/08/10 14:14:05;;;;;;;6.18;3.05;;;;;;;;;;5052783;28;20171;-62
2023/08/10 14:16:32;;;;;;;6.50;3.63;;;;;;;;;;5058969;28;20052;-62
2023/08/10 14:18:58;;;;;;;6.20;2.97;;;;;;;;;;5068143;28;20110;-62
2023/08/10 14:21:24;;;;;;;5.35;3.30;;;;;;;;;;5049461;28;20056;-62
2023/08/10 14:23:50;;;;;;;5.50;3.72;;;;;;;;;;5049274;28;20049;-62
2023/08/10 14:26:16;;;;;;;6.60;3.28;;;;;;;;;;5049130;28;20435;-61
2023/08/10 14:28:42;;;;;;;7.72;4.40;;;;;;;;;;5048485;28;20048;-62
2023/08/10 14:31:08;;;;;;;6.32;4.00;;;;;;;;;;5049731;28;20053;-62
2023/08/10 14:33:34;;;;;;;7.07;3.42;;;;;;;;;;5057411;28;20045;-62
2023/08/10 14:36:00;;;;;;;6.00;2.97;;;;;;;;;;5049441;28;20115;-62